createdAt,value
2022-10-20T00:00:32.900Z,13.70
2022-10-20T00:03:03.598Z,13.57
2022-10-20T00:05:40.960Z,13.54
2022-10-20T00:08:11.592Z,13.69
2022-10-20T00:10:42.571Z,13.86
2022-10-20T00:13:13.592Z,13.77
2022-10-20T00:15:56.341Z,13.81
2022-10-20T00:18:27.040Z,13.78
2022-10-20T00:21:06.307Z,13.84
2022-10-20T00:23:34.286Z,13.77
2022-10-20T00:26:11.157Z,13.80
2022-10-20T00:28:47.204Z,13.83
2022-10-20T00:31:27.046Z,13.85
2022-10-20T00:33:57.722Z,13.76
2022-10-20T00:36:34.512Z,13.74
2022-10-20T00:39:06.651Z,13.60
2022-10-20T00:41:36.947Z,13.60
2022-10-20T00:44:27.224Z,13.55
2022-10-20T00:46:59.764Z,13.67
2022-10-20T00:49:33.386Z,13.79
2022-10-20T00:52:06.290Z,13.88
2022-10-20T00:54:55.292Z,14.01
2022-10-20T00:57:24.501Z,14.07
2022-10-20T01:02:39.302Z,13.94
2022-10-20T01:05:10.178Z,13.84
2022-10-20T01:07:46.717Z,13.79
2022-10-20T01:10:21.818Z,13.78
2022-10-20T01:13:14.620Z,13.70
2022-10-20T01:16:05.535Z,13.75
2022-10-20T01:18:47.257Z,13.63
2022-10-20T01:21:26.292Z,13.69
2022-10-20T01:24:07.210Z,13.77
2022-10-20T01:27:06.635Z,13.66
2022-10-20T01:29:49.736Z,13.70
2022-10-20T01:32:31.310Z,14.09
2022-10-20T01:35:09.206Z,14.14
2022-10-20T01:37:51.199Z,14.34
2022-10-20T01:40:33.693Z,14.34
2022-10-20T01:43:06.043Z,14.37
2022-10-20T01:45:38.026Z,14.37
2022-10-20T01:48:15.477Z,14.34
2022-10-20T01:50:51.175Z,14.35
2022-10-20T01:53:28.362Z,14.43
2022-10-20T01:56:05.123Z,14.40
2022-10-20T01:58:56.892Z,14.45
2022-10-20T02:01:31.033Z,14.36
2022-10-20T02:04:02.390Z,14.32
2022-10-20T02:06:50.352Z,14.33
2022-10-20T02:09:24.531Z,14.30
2022-10-20T02:11:59.871Z,14.30
2022-10-20T02:14:29.424Z,14.32
2022-10-20T02:17:04.118Z,14.27
2022-10-20T02:19:35.942Z,14.19
2022-10-20T02:22:05.729Z,14.26
2022-10-20T02:24:47.119Z,14.23
2022-10-20T02:27:39.100Z,14.11
2022-10-20T02:30:10.169Z,14.17
2022-10-20T02:35:30.695Z,14.14
2022-10-20T02:38:01.361Z,14.15
2022-10-20T02:40:31.936Z,14.16
2022-10-20T02:43:02.707Z,14.05
2022-10-20T02:45:33.582Z,14.06
2022-10-20T02:48:11.196Z,14.03
2022-10-20T02:50:53.186Z,14.00
2022-10-20T02:53:23.727Z,13.94
2022-10-20T02:56:00.842Z,13.86
2022-10-20T02:58:33.175Z,13.88
2022-10-20T03:01:09.366Z,13.88
2022-10-20T03:03:42.692Z,13.86
2022-10-20T03:06:19.716Z,13.79
2022-10-20T03:08:54.884Z,13.73
2022-10-20T03:14:13.763Z,13.77
2022-10-20T03:16:43.856Z,13.76
2022-10-20T03:19:14.616Z,13.74
2022-10-20T03:21:42.796Z,13.69
2022-10-20T03:24:12.978Z,13.31
2022-10-20T03:26:43.495Z,13.63
2022-10-20T03:29:12.950Z,13.72
2022-10-20T03:31:43.520Z,13.70
2022-10-20T03:34:15.394Z,13.67
2022-10-20T03:36:44.062Z,13.56
2022-10-20T03:39:14.071Z,13.50
2022-10-20T03:41:51.565Z,13.61
2022-10-20T03:44:25.137Z,13.61
2022-10-20T03:47:03.741Z,13.61
2022-10-20T03:49:34.349Z,13.53
2022-10-20T03:52:07.317Z,13.56
2022-10-20T03:54:43.843Z,13.62
2022-10-20T03:57:11.496Z,13.55
2022-10-20T03:59:48.906Z,13.57
2022-10-20T04:02:33.511Z,13.46
2022-10-20T04:05:04.240Z,13.48
2022-10-20T04:07:35.154Z,13.52
2022-10-20T04:10:07.016Z,13.46
2022-10-20T04:12:36.364Z,13.43
2022-10-20T04:15:12.576Z,13.33
2022-10-20T04:17:46.854Z,13.39
2022-10-20T04:20:18.251Z,13.41
2022-10-20T04:22:51.637Z,13.44
2022-10-20T04:25:21.781Z,13.32
2022-10-20T04:27:58.044Z,13.28
2022-10-20T04:30:26.540Z,13.29
2022-10-20T04:32:54.981Z,13.21
2022-10-20T04:35:29.357Z,13.18
2022-10-20T04:38:02.773Z,13.13
2022-10-20T04:40:39.859Z,13.19
2022-10-20T04:43:13.459Z,13.22
2022-10-20T04:45:44.695Z,12.79
2022-10-20T04:48:20.047Z,13.07
2022-10-20T04:50:50.541Z,12.98
2022-10-20T04:53:21.947Z,12.88
2022-10-20T04:55:58.171Z,13.01
2022-10-20T04:58:41.405Z,13.07
2022-10-20T05:01:19.769Z,13.00
2022-10-20T05:03:49.757Z,13.02
2022-10-20T05:06:29.549Z,12.93
2022-10-20T05:09:07.413Z,13.05
2022-10-20T05:11:39.061Z,12.97
2022-10-20T05:14:11.284Z,12.89
2022-10-20T05:16:45.506Z,12.90
2022-10-20T05:19:16.474Z,12.87
2022-10-20T05:21:49.392Z,12.85
2022-10-20T05:24:29.970Z,12.79
2022-10-20T05:27:00.808Z,12.77
2022-10-20T05:29:31.667Z,12.79
2022-10-20T05:32:09.276Z,12.84
2022-10-20T05:34:39.742Z,12.81
2022-10-20T05:37:17.128Z,12.84
2022-10-20T05:42:27.231Z,12.87
2022-10-20T05:45:01.241Z,12.89
2022-10-20T05:47:37.093Z,12.70
2022-10-20T05:50:14.015Z,12.71
2022-10-20T05:52:52.973Z,12.76
2022-10-20T05:55:22.708Z,12.81
2022-10-20T05:57:59.141Z,12.83
2022-10-20T06:00:41.440Z,12.88
2022-10-20T06:03:19.861Z,12.90
2022-10-20T06:05:57.194Z,12.50
2022-10-20T06:08:27.985Z,12.69
2022-10-20T06:10:56.713Z,12.75
2022-10-20T06:13:30.822Z,12.81
2022-10-20T06:16:10.576Z,12.76
2022-10-20T06:18:47.523Z,12.76
2022-10-20T06:21:22.886Z,12.71
2022-10-20T06:23:52.852Z,12.69
2022-10-20T06:26:26.927Z,12.86
2022-10-20T06:28:59.933Z,12.83
2022-10-20T06:31:46.501Z,12.85
2022-10-20T06:34:23.434Z,12.85
2022-10-20T06:36:51.554Z,12.91
2022-10-20T06:39:27.987Z,12.97
2022-10-20T06:41:57.511Z,12.94
2022-10-20T06:44:35.414Z,12.89
2022-10-20T06:47:10.616Z,12.91
2022-10-20T06:49:44.330Z,12.95
2022-10-20T06:52:14.790Z,12.99
2022-10-20T06:54:46.949Z,12.98
2022-10-20T06:57:19.972Z,13.00
2022-10-20T06:59:51.034Z,13.04
2022-10-20T07:02:24.172Z,13.08
2022-10-20T07:04:56.038Z,13.09
2022-10-20T07:07:30.852Z,13.12
2022-10-20T07:10:01.371Z,13.13
2022-10-20T07:12:32.085Z,13.07
2022-10-20T07:15:02.684Z,13.19
2022-10-20T07:17:36.352Z,13.23
2022-10-20T07:20:13.610Z,13.26
2022-10-20T07:22:41.411Z,13.16
2022-10-20T07:25:17.997Z,13.27
2022-10-20T07:27:53.809Z,13.27
2022-10-20T07:30:30.920Z,13.33
2022-10-20T07:33:04.370Z,13.41
2022-10-20T07:35:34.932Z,13.42
2022-10-20T07:38:08.748Z,13.50
2022-10-20T07:40:38.867Z,13.49
2022-10-20T07:43:12.899Z,13.55
2022-10-20T07:45:43.274Z,13.39
2022-10-20T07:48:14.500Z,13.30
2022-10-20T07:50:45.130Z,13.41
2022-10-20T07:53:16.269Z,13.42
2022-10-20T07:55:53.813Z,13.47
2022-10-20T07:58:30.610Z,13.54
2022-10-20T08:01:06.700Z,13.60
2022-10-20T08:03:51.599Z,13.61
2022-10-20T08:06:22.507Z,13.71
2022-10-20T08:08:51.667Z,13.87
2022-10-20T08:11:36.922Z,13.87
2022-10-20T08:14:06.888Z,13.85
2022-10-20T08:19:22.893Z,14.01
2022-10-20T08:22:00.556Z,13.99
2022-10-20T08:24:31.685Z,14.15
2022-10-20T08:27:03.243Z,14.15
2022-10-20T08:29:35.865Z,14.27
2022-10-20T08:32:07.101Z,14.32
2022-10-20T08:34:39.680Z,14.34
2022-10-20T08:37:12.133Z,14.39
2022-10-20T08:39:45.555Z,14.39
2022-10-20T08:42:15.950Z,14.37
2022-10-20T08:44:53.844Z,14.34
2022-10-20T08:47:33.633Z,14.44
2022-10-20T08:50:33.040Z,14.42
2022-10-20T08:53:10.305Z,14.46
2022-10-20T08:55:47.267Z,14.63
2022-10-20T08:58:27.734Z,14.58
2022-10-20T09:01:00.598Z,14.51
2022-10-20T09:03:37.650Z,14.57
2022-10-20T09:06:17.778Z,14.62
2022-10-20T09:08:46.379Z,14.65
2022-10-20T09:11:22.432Z,14.59
2022-10-20T09:13:52.770Z,14.65
2022-10-20T09:16:41.839Z,14.69
2022-10-20T09:19:36.034Z,14.74
2022-10-20T09:22:12.450Z,14.80
2022-10-20T09:24:49.861Z,14.74
2022-10-20T09:27:22.530Z,14.75
2022-10-20T09:29:54.078Z,14.77
2022-10-20T09:32:52.828Z,14.94
2022-10-20T09:35:38.721Z,15.03
2022-10-20T09:38:34.329Z,15.02
2022-10-20T09:41:21.616Z,15.01
2022-10-20T09:44:28.243Z,14.90
2022-10-20T09:46:58.209Z,15.10
2022-10-20T09:49:35.134Z,15.17
2022-10-20T09:52:06.542Z,15.25
2022-10-20T09:54:38.168Z,15.24
2022-10-20T09:57:14.794Z,15.10
2022-10-20T09:59:48.556Z,15.14
2022-10-20T10:02:20.824Z,15.34
2022-10-20T10:04:51.741Z,15.51
2022-10-20T10:07:31.233Z,15.41
2022-10-20T10:10:05.689Z,15.47
2022-10-20T10:12:41.698Z,15.62
2022-10-20T10:15:34.164Z,15.68
2022-10-20T10:18:12.996Z,15.67
2022-10-20T10:20:45.104Z,15.61
2022-10-20T10:23:29.919Z,15.79
2022-10-20T10:26:03.586Z,15.72
2022-10-20T10:28:48.019Z,15.66
2022-10-20T10:31:24.450Z,15.72
2022-10-20T10:34:05.214Z,15.65
2022-10-20T10:36:34.905Z,15.73
2022-10-20T10:39:06.080Z,16.03
2022-10-20T10:44:46.861Z,15.90
2022-10-20T10:47:19.720Z,15.90
2022-10-20T10:49:57.391Z,15.83
2022-10-20T10:53:06.042Z,15.91
2022-10-20T10:55:52.939Z,15.95
2022-10-20T10:58:55.910Z,16.08
2022-10-20T11:01:49.531Z,16.00
2022-10-20T11:04:56.457Z,16.11
2022-10-20T11:07:27.202Z,16.18
2022-10-20T11:10:15.900Z,16.76
2022-10-20T11:13:02.407Z,17.29
2022-10-20T11:16:07.619Z,21.80
2022-10-20T11:18:44.550Z,22.13
2022-10-20T11:21:46.496Z,20.44
2022-10-20T11:24:15.116Z,19.20
2022-10-20T11:26:51.685Z,19.87
2022-10-20T11:29:42.733Z,19.61
2022-10-20T11:35:32.793Z,19.34
2022-10-20T11:38:30.414Z,19.42
2022-10-20T11:41:20.570Z,19.47
2022-10-20T11:44:08.610Z,19.03
2022-10-20T11:46:45.429Z,18.93
2022-10-20T11:49:16.200Z,18.74
2022-10-20T11:52:05.017Z,18.69
2022-10-20T11:54:54.602Z,18.93
2022-10-20T11:57:38.883Z,19.04
2022-10-20T12:00:21.678Z,19.25
2022-10-20T12:03:10.388Z,19.45
2022-10-20T12:05:59.541Z,19.65
2022-10-20T12:08:51.087Z,20.07
2022-10-20T12:11:41.966Z,22.14
2022-10-20T12:14:17.727Z,24.56
2022-10-20T12:17:01.168Z,25.89
2022-10-20T12:19:41.713Z,26.94
2022-10-20T12:22:28.712Z,27.17
2022-10-20T12:25:00.578Z,24.64
2022-10-20T12:27:30.710Z,24.32
2022-10-20T12:30:24.629Z,25.58
2022-10-20T12:32:55.770Z,24.01
2022-10-20T12:35:36.635Z,21.42
2022-10-20T12:38:07.427Z,19.70
2022-10-20T12:40:55.058Z,18.75
2022-10-20T12:43:39.085Z,18.42
2022-10-20T12:46:10.412Z,18.60
2022-10-20T12:48:45.164Z,18.35
2022-10-20T12:51:27.181Z,18.07
2022-10-20T12:53:57.963Z,18.01
2022-10-20T12:56:31.822Z,17.90
2022-10-20T12:59:15.443Z,17.97
2022-10-20T13:05:15.662Z,17.94
2022-10-20T13:08:02.778Z,18.01
2022-10-20T13:10:52.612Z,18.23
2022-10-20T13:16:17.256Z,18.94
2022-10-20T13:18:52.795Z,18.84
2022-10-20T13:21:32.515Z,18.48
2022-10-20T13:24:22.523Z,18.36
2022-10-20T13:26:54.347Z,18.35
2022-10-20T13:29:55.616Z,18.05
2022-10-20T13:33:10.996Z,17.80
2022-10-20T13:35:54.538Z,17.78
2022-10-20T13:38:40.029Z,17.46
2022-10-20T13:41:27.903Z,17.45
2022-10-20T13:44:31.398Z,17.33
2022-10-20T13:47:21.079Z,17.34
2022-10-20T13:50:01.108Z,17.37
2022-10-20T13:52:32.422Z,17.46
2022-10-20T13:55:13.329Z,17.62
2022-10-20T13:57:55.499Z,18.05
2022-10-20T14:00:35.156Z,18.15
2022-10-20T14:03:21.905Z,18.01
2022-10-20T14:05:55.542Z,17.92
2022-10-20T14:08:26.029Z,18.37
2022-10-20T14:11:01.512Z,18.26
2022-10-20T14:13:34.669Z,18.26
2022-10-20T14:19:11.974Z,18.04
2022-10-20T14:21:45.892Z,18.13
2022-10-20T14:24:23.275Z,17.81
2022-10-20T14:26:53.862Z,17.52
2022-10-20T14:29:43.384Z,17.29
2022-10-20T14:32:19.288Z,17.09
2022-10-20T14:35:09.638Z,17.22
2022-10-20T14:37:44.942Z,16.91
2022-10-20T14:40:35.187Z,16.96
2022-10-20T14:43:12.492Z,16.93
2022-10-20T14:45:46.492Z,16.79
2022-10-20T14:48:20.770Z,16.74
2022-10-20T14:51:03.539Z,16.56
2022-10-20T14:53:36.914Z,16.51
2022-10-20T14:56:26.108Z,16.50
2022-10-20T14:59:05.390Z,16.38
2022-10-20T15:01:40.775Z,16.15
2022-10-20T15:04:40.822Z,16.23
2022-10-20T15:07:30.009Z,16.13
2022-10-20T15:10:05.247Z,15.98
2022-10-20T15:13:06.171Z,15.90
2022-10-20T15:15:40.002Z,15.89
2022-10-20T15:18:15.051Z,15.88
2022-10-20T15:20:51.488Z,15.89
2022-10-20T15:23:48.026Z,15.87
2022-10-20T15:26:23.680Z,15.78
2022-10-20T15:28:53.128Z,15.84
2022-10-20T15:31:33.851Z,15.69
2022-10-20T15:34:01.647Z,15.68
2022-10-20T15:36:33.259Z,15.73
2022-10-20T15:41:53.013Z,15.58
2022-10-20T15:44:34.163Z,15.69
2022-10-20T15:47:04.015Z,15.46
2022-10-20T15:49:42.881Z,15.34
2022-10-20T15:52:16.257Z,15.22
2022-10-20T15:54:48.070Z,15.32
2022-10-20T15:57:21.326Z,15.17
2022-10-20T15:59:50.802Z,15.18
2022-10-20T16:02:21.299Z,15.17
2022-10-20T16:04:50.178Z,15.03
2022-10-20T16:07:17.748Z,14.94
2022-10-20T16:09:54.321Z,15.04
2022-10-20T16:12:31.479Z,15.11
2022-10-20T16:15:02.912Z,15.19
2022-10-20T16:17:40.519Z,14.92
2022-10-20T16:20:21.141Z,14.82
2022-10-20T16:22:51.325Z,14.72
2022-10-20T16:25:21.590Z,14.78
2022-10-20T16:27:50.673Z,14.86
2022-10-20T16:30:24.611Z,14.86
2022-10-20T16:35:46.990Z,14.86
2022-10-20T16:38:16.953Z,14.92
2022-10-20T16:40:50.559Z,14.66
2022-10-20T16:43:18.928Z,14.44
2022-10-20T16:45:52.498Z,14.34
2022-10-20T16:48:23.819Z,14.37
2022-10-20T16:50:57.684Z,14.23
2022-10-20T16:53:25.914Z,14.35
2022-10-20T16:55:56.783Z,14.44
2022-10-20T16:58:30.484Z,14.46
2022-10-20T17:01:09.782Z,14.47
2022-10-20T17:03:40.340Z,14.26
2022-10-20T17:06:11.866Z,14.04
2022-10-20T17:08:43.716Z,14.11
2022-10-20T17:11:19.052Z,13.97
2022-10-20T17:13:49.809Z,13.94
2022-10-20T17:16:45.672Z,13.94
2022-10-20T17:19:19.869Z,13.81
2022-10-20T17:21:56.684Z,13.85
2022-10-20T17:24:33.040Z,13.86
2022-10-20T17:27:15.900Z,13.71
2022-10-20T17:29:48.567Z,13.38
2022-10-20T17:32:20.858Z,13.26
2022-10-20T17:35:04.653Z,13.48
2022-10-20T17:37:35.077Z,13.56
2022-10-20T17:40:04.793Z,13.55
2022-10-20T17:42:47.929Z,13.55
2022-10-20T17:45:25.796Z,13.47
2022-10-20T17:48:03.020Z,13.44
2022-10-20T17:50:35.836Z,13.05
2022-10-20T17:53:11.731Z,12.99
2022-10-20T17:55:49.793Z,12.92
2022-10-20T17:58:23.388Z,12.83
2022-10-20T18:00:57.029Z,12.75
2022-10-20T18:03:34.032Z,12.65
2022-10-20T18:06:33.581Z,12.55
2022-10-20T18:09:10.195Z,12.46
2022-10-20T18:11:40.908Z,12.49
2022-10-20T18:14:10.255Z,12.49
2022-10-20T18:16:40.798Z,12.55
2022-10-20T18:19:11.738Z,12.57
2022-10-20T18:21:43.023Z,12.44
2022-10-20T18:24:13.118Z,12.40
2022-10-20T18:26:50.798Z,12.32
2022-10-20T18:29:24.428Z,12.42
2022-10-20T18:32:02.209Z,12.52
2022-10-20T18:34:34.938Z,12.56
2022-10-20T18:37:08.772Z,12.58
2022-10-20T18:39:45.470Z,12.51
2022-10-20T18:42:21.547Z,12.43
2022-10-20T18:44:51.632Z,12.30
2022-10-20T18:47:25.124Z,12.36
2022-10-20T18:49:55.342Z,12.27
2022-10-20T18:52:28.615Z,12.19
2022-10-20T18:54:59.427Z,12.09
2022-10-20T18:57:30.471Z,12.11
2022-10-20T19:00:14.534Z,12.12
2022-10-20T19:02:42.209Z,12.24
2022-10-20T19:05:12.375Z,12.22
2022-10-20T19:07:43.324Z,12.15
2022-10-20T19:10:20.961Z,11.83
2022-10-20T19:12:58.809Z,11.54
2022-10-20T19:15:29.926Z,11.67
2022-10-20T19:20:47.348Z,11.60
2022-10-20T19:26:11.484Z,11.63
2022-10-20T19:28:54.783Z,11.69
2022-10-20T19:31:35.711Z,11.71
2022-10-20T19:34:15.137Z,11.71
2022-10-20T19:36:53.770Z,11.41
2022-10-20T19:39:33.043Z,11.22
2022-10-20T19:42:06.530Z,10.82
2022-10-20T19:44:35.845Z,10.62
2022-10-20T19:47:08.388Z,10.77
2022-10-20T19:49:45.949Z,10.93
2022-10-20T19:52:16.897Z,10.85
2022-10-20T19:54:45.944Z,10.85
2022-10-20T19:57:22.631Z,11.05
2022-10-20T19:59:51.117Z,11.01
2022-10-20T20:02:22.734Z,10.97
2022-10-20T20:05:08.466Z,10.88
2022-10-20T20:07:40.054Z,10.62
2022-10-20T20:10:10.722Z,10.75
2022-10-20T20:12:44.062Z,10.86
2022-10-20T20:15:14.540Z,10.78
2022-10-20T20:17:43.646Z,10.80
2022-10-20T20:20:14.481Z,10.70
2022-10-20T20:22:45.165Z,10.29
2022-10-20T20:25:15.774Z,10.38
2022-10-20T20:27:46.681Z,10.53
2022-10-20T20:30:18.469Z,10.53
2022-10-20T20:32:55.593Z,10.71
2022-10-20T20:35:26.790Z,10.56
2022-10-20T20:37:56.181Z,10.51
2022-10-20T20:40:33.340Z,10.46
2022-10-20T20:43:05.212Z,10.41
2022-10-20T20:45:43.693Z,10.40
2022-10-20T20:48:21.710Z,10.38
2022-10-20T20:51:00.161Z,10.40
2022-10-20T20:56:14.737Z,10.49
2022-10-20T20:58:46.128Z,10.44
2022-10-20T21:01:17.395Z,10.28
2022-10-20T21:03:49.753Z,10.12
2022-10-20T21:06:28.838Z,10.09
2022-10-20T21:09:08.436Z,10.02
2022-10-20T21:11:38.949Z,9.88
2022-10-20T21:14:09.248Z,9.51
2022-10-20T21:16:54.242Z,9.63
2022-10-20T21:19:30.781Z,9.77
2022-10-20T21:22:08.780Z,9.93
2022-10-20T21:24:38.571Z,9.99
2022-10-20T21:27:09.612Z,9.67
2022-10-20T21:29:51.127Z,9.72
2022-10-20T21:32:26.423Z,9.69
2022-10-20T21:35:05.684Z,9.88
2022-10-20T21:37:39.056Z,9.81
2022-10-20T21:40:10.197Z,9.68
2022-10-20T21:42:47.577Z,9.46
2022-10-20T21:45:21.197Z,9.52
2022-10-20T21:47:51.486Z,9.52
2022-10-20T21:50:20.600Z,9.47
2022-10-20T21:52:53.708Z,9.50
2022-10-20T21:55:24.537Z,9.65
2022-10-20T21:57:55.828Z,9.33
2022-10-20T22:00:26.441Z,9.52
2022-10-20T22:02:59.839Z,9.71
2022-10-20T22:05:39.082Z,9.85
2022-10-20T22:08:12.644Z,9.64
2022-10-20T22:10:50.694Z,9.53
2022-10-20T22:13:28.080Z,9.43
2022-10-20T22:15:55.839Z,9.66
2022-10-20T22:18:28.757Z,9.60
2022-10-20T22:21:02.306Z,9.40
2022-10-20T22:23:32.305Z,9.37
2022-10-20T22:26:03.093Z,9.59
2022-10-20T22:28:47.483Z,9.55
2022-10-20T22:31:24.541Z,9.27
2022-10-20T22:33:58.059Z,9.34
2022-10-20T22:36:36.199Z,9.31
2022-10-20T22:39:04.720Z,9.27
2022-10-20T22:41:41.075Z,8.94
2022-10-20T22:44:12.465Z,9.08
2022-10-20T22:46:51.100Z,9.50
2022-10-20T22:49:23.412Z,9.22
2022-10-20T22:51:59.753Z,9.15
2022-10-20T22:54:35.549Z,9.19
2022-10-20T22:57:04.905Z,9.03
2022-10-20T22:59:35.739Z,9.31
2022-10-20T23:02:08.001Z,9.15
2022-10-20T23:04:44.364Z,9.44
2022-10-20T23:07:17.729Z,9.40
2022-10-20T23:09:46.480Z,9.36
2022-10-20T23:12:22.711Z,9.52
2022-10-20T23:17:38.665Z,9.23
2022-10-20T23:23:02.128Z,9.27
2022-10-20T23:25:33.418Z,9.22
2022-10-20T23:28:11.265Z,9.17
2022-10-20T23:30:42.333Z,9.22
2022-10-20T23:33:12.896Z,9.30
2022-10-20T23:35:56.012Z,9.21
2022-10-20T23:38:29.507Z,8.72
2022-10-20T23:40:59.652Z,8.69
2022-10-20T23:43:30.600Z,8.93
2022-10-20T23:46:00.581Z,8.92
2022-10-20T23:48:34.391Z,8.46
2022-10-20T23:51:07.186Z,8.34
2022-10-20T23:53:37.698Z,8.50
2022-10-20T23:56:08.886Z,8.64
2022-10-20T23:58:40.434Z,8.75
